createdAt,value
2023-08-07T00:02:05.432Z,46.31
2023-08-07T00:04:32.555Z,45.76
2023-08-07T00:07:02.688Z,45.95
2023-08-07T00:09:29.633Z,46.24
2023-08-07T00:11:57.018Z,46.16
2023-08-07T00:14:26.733Z,46.26
2023-08-07T00:16:53.767Z,46.32
2023-08-07T00:19:20.869Z,46.17
2023-08-07T00:21:48.077Z,46.13
2023-08-07T00:24:14.970Z,46.11
2023-08-07T00:26:41.942Z,46.17
2023-08-07T00:29:08.902Z,46.51
2023-08-07T00:31:35.885Z,47.02
2023-08-07T00:34:02.869Z,46.91
2023-08-07T00:36:29.879Z,47.45
2023-08-07T00:38:57.329Z,47.19
2023-08-07T00:41:24.493Z,46.97
2023-08-07T00:43:51.559Z,46.13
2023-08-07T00:46:20.198Z,46.04
2023-08-07T00:48:47.535Z,45.46
2023-08-07T00:51:14.885Z,45.43
2023-08-07T00:53:42.026Z,45.47
2023-08-07T00:56:09.025Z,44.80
2023-08-07T00:58:37.692Z,44.57
2023-08-07T01:01:05.888Z,44.35
2023-08-07T01:03:33.259Z,44.62
2023-08-07T01:06:00.269Z,44.45
2023-08-07T01:08:27.595Z,44.34
2023-08-07T01:11:00.196Z,44.23
2023-08-07T01:13:48.497Z,44.33
2023-08-07T01:16:37.313Z,44.51
2023-08-07T01:19:05.622Z,44.44
2023-08-07T01:21:34.091Z,44.49
2023-08-07T01:24:01.060Z,44.55
2023-08-07T01:26:28.016Z,44.85
2023-08-07T01:29:36.286Z,44.85
2023-08-07T01:32:09.050Z,44.68
2023-08-07T01:34:38.125Z,44.73
2023-08-07T01:37:06.622Z,44.54
2023-08-07T01:39:34.108Z,44.36
2023-08-07T01:42:01.338Z,44.45
2023-08-07T01:44:28.393Z,44.36
2023-08-07T01:46:55.640Z,44.49
2023-08-07T01:49:22.817Z,44.50
2023-08-07T01:51:49.694Z,44.44
2023-08-07T01:54:16.632Z,44.63
2023-08-07T01:56:43.555Z,44.65
2023-08-07T01:59:10.457Z,44.87
2023-08-07T02:01:37.470Z,44.95
2023-08-07T02:04:04.748Z,44.79
2023-08-07T02:06:31.658Z,44.93
2023-08-07T02:08:58.565Z,44.99
2023-08-07T02:11:25.715Z,45.01
2023-08-07T02:13:52.644Z,45.21
2023-08-07T02:16:19.615Z,44.95
2023-08-07T02:18:46.564Z,44.81
2023-08-07T02:21:13.514Z,44.19
2023-08-07T02:23:40.474Z,44.65
2023-08-07T02:26:07.487Z,44.96
2023-08-07T02:28:34.336Z,45.08
2023-08-07T02:31:01.320Z,44.79
2023-08-07T02:33:28.310Z,44.68
2023-08-07T02:35:55.175Z,44.67
2023-08-07T02:38:22.019Z,44.53
2023-08-07T02:40:48.994Z,45.74
2023-08-07T02:43:15.915Z,46.17
2023-08-07T02:45:42.939Z,47.75
2023-08-07T02:48:09.949Z,48.25
2023-08-07T02:50:37.048Z,48.07
2023-08-07T02:53:04.058Z,47.06
2023-08-07T02:55:31.109Z,47.01
2023-08-07T02:57:58.046Z,47.68
2023-08-07T03:00:24.983Z,47.55
2023-08-07T03:02:52.126Z,46.89
2023-08-07T03:05:19.145Z,46.01
2023-08-07T03:07:46.135Z,46.08
2023-08-07T03:10:13.140Z,45.95
2023-08-07T03:12:40.118Z,45.60
2023-08-07T03:15:07.610Z,46.52
2023-08-07T03:17:34.563Z,48.86
2023-08-07T03:20:01.505Z,50.14
2023-08-07T03:22:28.310Z,49.50
2023-08-07T03:24:55.390Z,50.93
2023-08-07T03:27:22.686Z,50.23
2023-08-07T03:29:49.623Z,50.60
2023-08-07T03:32:17.413Z,50.21
2023-08-07T03:34:44.502Z,49.58
2023-08-07T03:37:11.511Z,48.63
2023-08-07T03:39:38.620Z,48.45
2023-08-07T03:42:05.752Z,47.93
2023-08-07T03:44:32.645Z,47.54
2023-08-07T03:46:59.783Z,48.48
2023-08-07T03:49:26.699Z,49.23
2023-08-07T03:51:53.652Z,49.78
2023-08-07T03:54:20.676Z,50.31
2023-08-07T03:56:47.730Z,50.82
2023-08-07T03:59:14.835Z,50.02
2023-08-07T04:01:41.850Z,49.01
2023-08-07T04:04:08.720Z,48.33
2023-08-07T04:06:38.794Z,47.58
2023-08-07T04:09:05.761Z,47.26
2023-08-07T04:11:32.684Z,46.66
2023-08-07T04:13:59.535Z,45.29
2023-08-07T04:16:26.503Z,44.71
2023-08-07T04:18:53.398Z,44.08
2023-08-07T04:21:20.288Z,43.76
2023-08-07T04:23:47.268Z,42.98
2023-08-07T04:26:14.163Z,41.73
2023-08-07T04:28:41.383Z,41.64
2023-08-07T04:31:08.518Z,41.74
2023-08-07T04:33:35.570Z,42.63
2023-08-07T04:36:02.496Z,41.57
2023-08-07T04:38:29.519Z,40.76
2023-08-07T04:40:56.373Z,39.40
2023-08-07T04:43:23.271Z,40.60
2023-08-07T04:45:50.479Z,41.89
2023-08-07T04:48:18.086Z,43.03
2023-08-07T04:50:45.026Z,42.87
2023-08-07T04:53:12.069Z,41.74
2023-08-07T04:55:40.172Z,40.56
2023-08-07T04:58:07.054Z,38.81
2023-08-07T05:00:34.227Z,38.10
2023-08-07T05:03:01.392Z,36.77
2023-08-07T05:05:28.648Z,36.60
2023-08-07T05:07:56.664Z,36.60
2023-08-07T05:10:23.664Z,36.80
2023-08-07T05:12:50.668Z,37.51
2023-08-07T05:15:17.648Z,38.50
2023-08-07T05:17:44.709Z,38.66
2023-08-07T05:20:11.951Z,39.00
2023-08-07T05:22:40.650Z,38.24
2023-08-07T05:25:07.852Z,37.91
2023-08-07T05:27:34.806Z,37.27
2023-08-07T05:30:01.798Z,37.31
2023-08-07T05:32:29.289Z,36.95
2023-08-07T05:34:56.270Z,36.16
2023-08-07T05:37:23.248Z,35.90
2023-08-07T05:39:50.164Z,34.80
2023-08-07T05:42:17.065Z,34.00
2023-08-07T05:44:44.219Z,34.53
2023-08-07T05:47:11.128Z,34.95
2023-08-07T05:49:38.107Z,35.13
2023-08-07T05:52:05.593Z,35.48
2023-08-07T05:54:32.577Z,35.37
2023-08-07T05:56:59.552Z,34.46
2023-08-07T05:59:26.624Z,35.24
2023-08-07T06:01:56.334Z,35.56
2023-08-07T06:04:25.129Z,35.51
2023-08-07T06:06:52.218Z,37.06
2023-08-07T06:09:19.091Z,37.26
2023-08-07T06:11:46.015Z,37.45
2023-08-07T06:14:12.976Z,37.60
2023-08-07T06:16:39.906Z,36.52
2023-08-07T06:19:13.593Z,37.45
2023-08-07T06:21:48.419Z,37.90
2023-08-07T06:24:15.371Z,38.55
2023-08-07T06:26:42.461Z,38.21
2023-08-07T06:29:09.584Z,38.89
2023-08-07T06:31:37.054Z,38.77
2023-08-07T06:34:04.055Z,38.09
2023-08-07T06:36:31.076Z,37.49
2023-08-07T06:38:58.016Z,36.90
2023-08-07T06:41:24.935Z,36.63
2023-08-07T06:43:51.918Z,36.77
2023-08-07T06:46:18.879Z,37.69
2023-08-07T06:48:45.822Z,37.45
2023-08-07T06:51:12.797Z,38.18
2023-08-07T06:53:39.799Z,38.37
2023-08-07T06:56:06.731Z,38.80
2023-08-07T06:58:33.909Z,39.03
2023-08-07T07:01:00.871Z,38.45
2023-08-07T07:03:27.846Z,37.47
2023-08-07T07:05:54.899Z,37.37
2023-08-07T07:08:22.060Z,37.04
2023-08-07T07:10:49.033Z,36.63
2023-08-07T07:13:16.279Z,36.68
2023-08-07T07:15:43.262Z,37.40
2023-08-07T07:18:10.150Z,37.02
2023-08-07T07:20:37.202Z,36.71
2023-08-07T07:23:04.059Z,36.57
2023-08-07T07:25:30.997Z,35.90
2023-08-07T07:27:58.058Z,35.71
2023-08-07T07:30:24.980Z,34.85
2023-08-07T07:32:51.900Z,34.70
2023-08-07T07:35:19.325Z,33.85
2023-08-07T07:37:46.325Z,34.41
2023-08-07T07:40:13.470Z,35.04
2023-08-07T07:42:40.384Z,35.23
2023-08-07T07:45:07.658Z,33.82
2023-08-07T07:47:34.580Z,34.83
2023-08-07T07:50:09.613Z,34.61
2023-08-07T07:52:36.514Z,34.96
2023-08-07T07:55:03.587Z,34.39
2023-08-07T07:57:30.517Z,34.07
2023-08-07T07:59:57.405Z,33.70
2023-08-07T08:02:24.455Z,33.61
2023-08-07T08:04:52.669Z,32.99
2023-08-07T08:07:19.944Z,33.13
2023-08-07T08:09:46.852Z,32.56
2023-08-07T08:12:13.805Z,32.02
2023-08-07T08:14:55.350Z,32.45
2023-08-07T08:17:24.477Z,31.97
2023-08-07T08:19:51.826Z,31.95
2023-08-07T08:22:19.082Z,33.23
2023-08-07T08:24:45.991Z,32.74
2023-08-07T08:27:12.819Z,32.18
2023-08-07T08:29:39.735Z,31.77
2023-08-07T08:32:09.999Z,32.50
2023-08-07T08:34:36.934Z,32.08
2023-08-07T08:37:06.836Z,30.83
2023-08-07T08:39:33.920Z,30.54
2023-08-07T08:42:01.095Z,31.54
2023-08-07T08:44:32.804Z,31.51
2023-08-07T08:47:01.663Z,31.07
2023-08-07T08:49:34.455Z,29.83
2023-08-07T08:52:02.521Z,30.29
2023-08-07T08:54:30.289Z,29.49
2023-08-07T08:56:58.768Z,29.15
2023-08-07T08:59:25.953Z,29.95
2023-08-07T09:01:53.336Z,30.36
2023-08-07T09:04:20.418Z,31.31
2023-08-07T09:06:47.902Z,30.04
2023-08-07T09:09:15.884Z,30.41
2023-08-07T09:11:46.234Z,30.03
2023-08-07T09:14:17.598Z,30.25
2023-08-07T09:16:49.658Z,28.67
2023-08-07T09:19:16.914Z,28.79
2023-08-07T09:21:43.764Z,29.88
2023-08-07T09:24:10.779Z,29.76
2023-08-07T09:26:37.824Z,29.36
2023-08-07T09:29:04.821Z,28.95
2023-08-07T09:31:31.936Z,28.57
2023-08-07T09:34:06.074Z,28.32
2023-08-07T09:36:33.403Z,27.88
2023-08-07T09:39:04.387Z,27.97
2023-08-07T09:41:32.256Z,28.58
2023-08-07T09:43:59.749Z,28.24
2023-08-07T09:46:27.589Z,27.88
2023-08-07T09:48:59.526Z,27.16
2023-08-07T09:51:26.503Z,28.08
2023-08-07T09:53:53.577Z,29.36
2023-08-07T09:56:20.479Z,29.34
2023-08-07T09:58:50.551Z,29.49
2023-08-07T10:01:18.258Z,29.37
2023-08-07T10:03:46.267Z,29.18
2023-08-07T10:06:13.563Z,30.08
2023-08-07T10:08:41.079Z,29.22
2023-08-07T10:11:10.361Z,28.48
2023-08-07T10:13:39.895Z,26.96
2023-08-07T10:16:07.564Z,26.13
2023-08-07T10:18:35.774Z,26.25
2023-08-07T10:21:06.292Z,27.53
2023-08-07T10:23:37.079Z,27.29
2023-08-07T10:26:11.082Z,28.08
2023-08-07T10:28:40.482Z,27.56
2023-08-07T10:31:12.542Z,26.49
2023-08-07T10:33:40.584Z,25.14
2023-08-07T10:36:11.797Z,24.73
2023-08-07T10:38:39.080Z,24.86
2023-08-07T10:41:16.571Z,26.15
2023-08-07T10:43:45.507Z,26.82
2023-08-07T10:46:14.716Z,26.96
2023-08-07T10:48:48.797Z,27.93
2023-08-07T10:51:18.933Z,27.71
2023-08-07T10:53:48.652Z,27.58
2023-08-07T11:15:17.860Z,27.17
2023-08-07T11:17:44.830Z,27.24
2023-08-07T11:20:12.145Z,27.44
2023-08-07T11:22:39.568Z,26.82
2023-08-07T11:25:07.441Z,27.57
2023-08-07T11:27:34.313Z,27.41
2023-08-07T11:30:01.440Z,26.40
2023-08-07T11:32:28.638Z,24.86
2023-08-07T11:34:55.684Z,25.07
2023-08-07T11:37:22.664Z,25.82
2023-08-07T11:39:49.716Z,26.65
2023-08-07T11:42:16.679Z,26.43
2023-08-07T11:44:43.746Z,27.02
2023-08-07T11:47:11.847Z,27.41
2023-08-07T11:49:39.607Z,27.57
2023-08-07T11:52:07.214Z,27.71
2023-08-07T11:54:34.165Z,26.93
2023-08-07T11:57:01.004Z,26.68
2023-08-07T11:59:28.271Z,26.71
2023-08-07T12:01:55.101Z,26.97
2023-08-07T12:04:21.963Z,26.65
2023-08-07T12:06:57.321Z,26.09
2023-08-07T12:09:26.257Z,26.87
2023-08-07T12:11:57.820Z,26.39
2023-08-07T12:14:24.707Z,25.02
2023-08-07T12:16:51.618Z,24.72
2023-08-07T12:19:18.564Z,24.91
2023-08-07T12:21:45.445Z,25.28
2023-08-07T12:24:14.685Z,24.67
2023-08-07T12:26:41.554Z,25.32
2023-08-07T12:29:08.756Z,26.59
2023-08-07T12:31:35.640Z,25.28
2023-08-07T12:36:32.215Z,24.79
2023-08-07T12:38:59.178Z,24.81
2023-08-07T12:43:55.932Z,24.99
2023-08-07T12:48:52.572Z,24.69
2023-08-07T12:51:19.601Z,23.20
2023-08-07T12:53:47.563Z,23.71
2023-08-07T12:56:14.205Z,23.45
2023-08-07T12:58:42.502Z,24.24
2023-08-07T13:01:10.140Z,24.87
2023-08-07T13:03:40.535Z,25.78
2023-08-07T13:06:07.204Z,25.41
2023-08-07T13:08:33.898Z,24.30
2023-08-07T13:11:00.702Z,24.57
2023-08-07T13:13:27.346Z,24.07
2023-08-07T13:15:55.648Z,23.63
2023-08-07T13:18:22.662Z,23.00
2023-08-07T13:20:49.390Z,23.78
2023-08-07T13:23:16.061Z,24.61
2023-08-07T13:25:44.269Z,24.55
2023-08-07T13:28:10.879Z,25.54
2023-08-07T13:30:38.085Z,25.48
2023-08-07T13:33:05.402Z,25.14
2023-08-07T13:35:32.400Z,24.79
2023-08-07T13:37:59.070Z,23.47
2023-08-07T13:40:25.822Z,22.22
2023-08-07T13:42:52.568Z,23.15
2023-08-07T13:45:19.278Z,22.62
2023-08-07T13:47:46.133Z,21.24
2023-08-07T13:50:12.790Z,20.96
2023-08-07T13:52:39.498Z,21.86
2023-08-07T13:55:06.671Z,22.92
2023-08-07T13:57:33.401Z,23.06
2023-08-07T14:00:00.067Z,23.44
2023-08-07T14:02:29.478Z,23.00
2023-08-07T14:04:56.153Z,22.73
2023-08-07T14:07:22.818Z,22.33
2023-08-07T14:09:49.777Z,22.45
2023-08-07T14:12:19.317Z,20.65
2023-08-07T14:14:46.188Z,21.26
2023-08-07T14:17:13.102Z,21.87
2023-08-07T14:19:39.919Z,21.41
2023-08-07T14:22:06.872Z,20.42
2023-08-07T14:24:33.725Z,22.02
2023-08-07T14:27:00.784Z,23.10
2023-08-07T14:29:30.152Z,22.90
2023-08-07T14:31:57.186Z,22.35
2023-08-07T14:34:24.112Z,21.39
2023-08-07T14:36:51.023Z,21.75
2023-08-07T14:39:21.874Z,21.96
2023-08-07T14:41:48.888Z,20.65
2023-08-07T14:44:15.825Z,21.11
2023-08-07T14:46:42.773Z,21.39
2023-08-07T14:49:09.680Z,20.94
2023-08-07T14:51:36.551Z,21.26
2023-08-07T14:54:03.626Z,21.83
2023-08-07T14:56:30.444Z,21.53
2023-08-07T14:58:57.305Z,21.42
2023-08-07T15:01:24.347Z,21.09
2023-08-07T15:03:51.215Z,21.57
2023-08-07T15:06:18.144Z,21.32
2023-08-07T15:08:45.201Z,20.92
2023-08-07T15:11:12.086Z,20.24
2023-08-07T15:13:38.990Z,20.84
2023-08-07T15:16:05.953Z,19.61
2023-08-07T15:18:33.208Z,19.73
2023-08-07T15:21:03.288Z,20.45
2023-08-07T15:23:30.272Z,19.99
2023-08-07T15:25:58.060Z,19.29
2023-08-07T15:28:25.328Z,20.05
2023-08-07T15:30:52.552Z,20.59
2023-08-07T15:33:21.398Z,20.54
2023-08-07T15:35:50.534Z,20.71
2023-08-07T15:38:17.528Z,20.62
2023-08-07T15:40:44.341Z,20.47
2023-08-07T15:43:11.267Z,20.38
2023-08-07T15:45:38.324Z,20.80
2023-08-07T15:48:05.758Z,19.78
2023-08-07T15:50:32.673Z,20.12
2023-08-07T15:52:59.583Z,20.60
2023-08-07T15:55:26.361Z,20.88
2023-08-07T15:57:53.178Z,20.84
2023-08-07T16:00:20.773Z,21.41
2023-08-07T16:02:48.175Z,21.08
2023-08-07T16:05:15.072Z,20.96
2023-08-07T16:07:41.946Z,20.78
2023-08-07T16:10:09.044Z,21.75
2023-08-07T16:12:36.414Z,21.28
2023-08-07T16:15:03.556Z,20.52
2023-08-07T16:17:30.472Z,20.98
2023-08-07T16:19:57.380Z,20.14
2023-08-07T16:22:24.384Z,21.34
2023-08-07T16:24:51.207Z,20.47
2023-08-07T16:27:18.219Z,21.48
2023-08-07T16:29:45.125Z,20.98
2023-08-07T16:32:11.991Z,21.56
2023-08-07T16:34:38.873Z,21.49
2023-08-07T16:37:05.917Z,21.48
2023-08-07T16:39:32.832Z,21.57
2023-08-07T16:41:59.843Z,21.36
2023-08-07T16:44:26.888Z,21.71
2023-08-07T16:46:53.835Z,22.20
2023-08-07T16:49:20.718Z,21.83
2023-08-07T16:51:48.069Z,22.19
2023-08-07T16:54:15.019Z,21.99
2023-08-07T16:56:41.830Z,22.21
2023-08-07T16:59:08.774Z,22.45
2023-08-07T17:01:35.671Z,22.46
2023-08-07T17:04:02.587Z,22.52
2023-08-07T17:06:29.673Z,22.46
2023-08-07T17:08:56.902Z,22.70
2023-08-07T17:11:26.692Z,22.74
2023-08-07T17:13:53.513Z,23.03
2023-08-07T17:16:22.043Z,22.91
2023-08-07T17:18:50.392Z,22.89
2023-08-07T17:21:17.734Z,23.23
2023-08-07T17:23:47.109Z,23.57
2023-08-07T17:26:14.015Z,23.22
2023-08-07T17:28:41.030Z,23.43
2023-08-07T17:31:07.951Z,23.20
2023-08-07T17:33:34.938Z,23.31
2023-08-07T17:36:03.131Z,23.09
2023-08-07T17:38:30.061Z,23.49
2023-08-07T17:40:56.869Z,23.40
2023-08-07T17:43:23.912Z,23.18
2023-08-07T17:45:50.920Z,23.49
2023-08-07T17:48:19.597Z,23.38
2023-08-07T17:50:47.181Z,23.46
2023-08-07T17:53:14.700Z,23.37
2023-08-07T17:55:41.685Z,23.46
2023-08-07T17:58:08.621Z,23.35
2023-08-07T18:00:36.941Z,23.44
2023-08-07T18:03:03.986Z,23.56
2023-08-07T18:05:30.969Z,23.39
2023-08-07T18:07:58.220Z,23.41
2023-08-07T18:10:25.268Z,23.80
2023-08-07T18:12:52.343Z,23.74
2023-08-07T18:15:19.715Z,24.55
2023-08-07T18:17:47.189Z,25.93
2023-08-07T18:20:16.970Z,28.13
2023-08-07T18:22:44.030Z,30.37
2023-08-07T18:25:13.441Z,33.09
2023-08-07T18:27:40.451Z,33.71
2023-08-07T18:30:08.011Z,34.55
2023-08-07T18:32:35.105Z,36.33
2023-08-07T18:35:02.221Z,36.43
2023-08-07T18:37:29.106Z,37.68
2023-08-07T18:39:55.976Z,38.73
2023-08-07T18:42:23.526Z,39.41
2023-08-07T18:44:50.818Z,39.53
2023-08-07T18:47:17.652Z,40.43
2023-08-07T18:49:44.940Z,40.54
2023-08-07T18:52:11.814Z,41.08
2023-08-07T18:54:38.702Z,41.14
2023-08-07T18:57:06.581Z,41.57
2023-08-07T18:59:33.794Z,40.95
2023-08-07T19:02:00.720Z,40.52
2023-08-07T19:04:27.811Z,41.23
2023-08-07T19:06:54.761Z,40.61
2023-08-07T19:09:22.132Z,40.92
2023-08-07T19:11:49.182Z,40.57
2023-08-07T19:14:17.463Z,41.46
2023-08-07T19:16:44.647Z,41.19
2023-08-07T19:19:14.594Z,41.30
2023-08-07T19:21:41.989Z,41.47
2023-08-07T19:24:14.860Z,42.71
2023-08-07T19:26:41.756Z,43.09
2023-08-07T19:29:09.669Z,42.87
2023-08-07T19:31:37.400Z,42.82
2023-08-07T19:34:04.229Z,42.90
2023-08-07T19:36:31.037Z,42.88
2023-08-07T19:39:02.059Z,43.17
2023-08-07T19:41:29.186Z,43.18
2023-08-07T19:43:56.029Z,43.34
2023-08-07T19:46:23.222Z,43.01
2023-08-07T19:48:53.598Z,42.32
2023-08-07T19:51:20.806Z,42.20
2023-08-07T19:53:59.754Z,41.60
2023-08-07T19:56:30.094Z,42.85
2023-08-07T19:58:58.639Z,41.95
2023-08-07T20:01:25.732Z,42.11
2023-08-07T20:03:53.037Z,42.08
2023-08-07T20:06:20.107Z,42.14
2023-08-07T20:08:47.524Z,42.31
2023-08-07T20:11:14.468Z,42.02
2023-08-07T20:13:41.371Z,41.75
2023-08-07T20:16:08.291Z,41.54
2023-08-07T20:18:35.101Z,41.58
2023-08-07T20:21:02.167Z,42.04
2023-08-07T20:23:29.324Z,42.67
2023-08-07T20:25:56.591Z,41.91
2023-08-07T20:28:24.531Z,42.34
2023-08-07T20:30:52.011Z,42.34
2023-08-07T20:33:19.206Z,43.06
2023-08-07T20:35:46.095Z,43.60
2023-08-07T20:38:12.942Z,42.60
2023-08-07T20:40:39.832Z,42.72
2023-08-07T20:43:07.128Z,44.14
2023-08-07T20:45:34.124Z,44.55
2023-08-07T20:48:01.125Z,44.51
2023-08-07T20:50:28.433Z,44.92
2023-08-07T20:52:55.354Z,45.43
2023-08-07T20:55:23.117Z,45.93
2023-08-07T20:57:50.218Z,46.07
2023-08-07T21:00:17.558Z,45.79
2023-08-07T21:02:44.574Z,46.95
2023-08-07T21:05:11.725Z,48.27
2023-08-07T21:07:38.670Z,49.43
2023-08-07T21:10:06.060Z,50.07
2023-08-07T21:12:33.259Z,51.60
2023-08-07T21:15:00.620Z,52.15
2023-08-07T21:17:27.537Z,52.48
2023-08-07T21:19:54.574Z,52.54
2023-08-07T21:22:21.543Z,52.05
2023-08-07T21:24:48.491Z,50.91
2023-08-07T21:27:15.555Z,51.31
2023-08-07T21:29:42.437Z,51.79
2023-08-07T21:32:09.496Z,51.37
2023-08-07T21:34:36.450Z,51.54
2023-08-07T21:37:03.318Z,51.66
2023-08-07T21:39:30.133Z,51.73
2023-08-07T21:41:57.360Z,51.95
2023-08-07T21:44:24.475Z,51.96
2023-08-07T21:46:51.455Z,52.30
2023-08-07T21:49:18.504Z,51.71
2023-08-07T21:51:45.391Z,51.29
2023-08-07T21:54:12.222Z,51.51
2023-08-07T21:56:39.873Z,51.25
2023-08-07T21:59:11.910Z,51.35
2023-08-07T22:01:38.801Z,51.02
2023-08-07T22:04:05.816Z,50.78
2023-08-07T22:06:32.978Z,50.21
2023-08-07T22:08:59.896Z,50.06
2023-08-07T22:11:29.780Z,50.50
2023-08-07T22:13:56.675Z,50.98
2023-08-07T22:16:26.071Z,51.09
2023-08-07T22:18:56.228Z,50.72
2023-08-07T22:21:23.154Z,50.68
2023-08-07T22:23:53.049Z,50.86
2023-08-07T22:26:20.118Z,50.67
2023-08-07T22:28:47.041Z,50.63
2023-08-07T22:31:13.884Z,50.51
2023-08-07T22:33:41.105Z,51.12
2023-08-07T22:36:08.054Z,51.33
2023-08-07T22:38:34.986Z,51.50
2023-08-07T22:41:02.239Z,51.61
2023-08-07T22:43:29.269Z,50.74
2023-08-07T22:45:56.237Z,50.54
2023-08-07T22:48:23.266Z,50.26
2023-08-07T22:50:50.708Z,50.13
2023-08-07T22:53:17.584Z,49.93
2023-08-07T22:55:47.544Z,49.78
2023-08-07T22:58:14.491Z,49.68
2023-08-07T23:00:42.195Z,50.09
2023-08-07T23:03:09.193Z,50.24
2023-08-07T23:05:36.199Z,51.24
2023-08-07T23:08:03.088Z,51.93
2023-08-07T23:10:30.196Z,52.58
2023-08-07T23:12:57.043Z,52.78
2023-08-07T23:15:23.869Z,53.53
2023-08-07T23:17:50.908Z,53.52
2023-08-07T23:20:17.879Z,54.18
2023-08-07T23:22:44.742Z,54.89
2023-08-07T23:25:11.728Z,55.14
2023-08-07T23:27:38.607Z,55.33
2023-08-07T23:30:06.239Z,55.79
2023-08-07T23:32:33.499Z,55.81
2023-08-07T23:35:00.481Z,56.49
2023-08-07T23:37:27.364Z,56.61
2023-08-07T23:39:54.473Z,57.01
2023-08-07T23:42:21.376Z,56.72
2023-08-07T23:44:48.314Z,56.95
2023-08-07T23:47:15.312Z,56.86
2023-08-07T23:49:42.316Z,56.93
2023-08-07T23:52:09.229Z,56.95
2023-08-07T23:54:36.121Z,56.93
2023-08-07T23:57:03.087Z,57.20
2023-08-07T23:59:30.150Z,57.34
